sensor_id;sensor_type;location;lat;lon;timestamp;temperature;humidity
25550;DHT22;13444;50.562;7.262;2024-02-15T00:02:02;11.50;99.90
25550;DHT22;13444;50.562;7.262;2024-02-15T00:04:27;11.50;99.90
25550;DHT22;13444;50.562;7.262;2024-02-15T00:06:54;11.50;99.90
25550;DHT22;13444;50.562;7.262;2024-02-15T00:09:19;11.50;99.90
25550;DHT22;13444;50.562;7.262;2024-02-15T00:11:45;11.50;99.90
25550;DHT22;13444;50.562;7.262;2024-02-15T00:14:10;11.50;99.90
25550;DHT22;13444;50.562;7.262;2024-02-15T00:16:37;11.50;99.90
25550;DHT22;13444;50.562;7.262;2024-02-15T00:19:23;11.50;99.90
25550;DHT22;13444;50.562;7.262;2024-02-15T00:22:09;11.60;99.90
25550;DHT22;13444;50.562;7.262;2024-02-15T00:24:55;11.60;99.90
25550;DHT22;13444;50.562;7.262;2024-02-15T00:27:40;11.60;99.90
25550;DHT22;13444;50.562;7.262;2024-02-15T00:30:26;11.60;99.90
25550;DHT22;13444;50.562;7.262;2024-02-15T00:33:12;11.60;99.90
25550;DHT22;13444;50.562;7.262;2024-02-15T00:35:58;11.60;99.90
25550;DHT22;13444;50.562;7.262;2024-02-15T00:38:43;11.50;99.90
25550;DHT22;13444;50.562;7.262;2024-02-15T00:41:09;11.60;99.90
25550;DHT22;13444;50.562;7.262;2024-02-15T00:43:35;11.60;99.90
25550;DHT22;13444;50.562;7.262;2024-02-15T00:46:01;11.60;99.90
25550;DHT22;13444;50.562;7.262;2024-02-15T00:48:26;11.50;99.90
25550;DHT22;13444;50.562;7.262;2024-02-15T00:50:54;11.60;99.90
25550;DHT22;13444;50.562;7.262;2024-02-15T00:53:19;11.50;99.90
25550;DHT22;13444;50.562;7.262;2024-02-15T00:55:46;11.50;99.90
25550;DHT22;13444;50.562;7.262;2024-02-15T00:58:11;11.50;99.90
25550;DHT22;13444;50.562;7.262;2024-02-15T01:00:37;11.50;99.90
25550;DHT22;13444;50.562;7.262;2024-02-15T01:03:03;11.50;99.90
25550;DHT22;13444;50.562;7.262;2024-02-15T01:05:29;11.50;99.90
25550;DHT22;13444;50.562;7.262;2024-02-15T01:07:56;11.50;99.90
25550;DHT22;13444;50.562;7.262;2024-02-15T01:10:22;11.50;99.90
25550;DHT22;13444;50.562;7.262;2024-02-15T01:12:49;11.50;99.90
25550;DHT22;13444;50.562;7.262;2024-02-15T01:15:15;11.40;99.90
25550;DHT22;13444;50.562;7.262;2024-02-15T01:17:43;11.50;99.90
25550;DHT22;13444;50.562;7.262;2024-02-15T01:20:10;11.50;99.90
25550;DHT22;13444;50.562;7.262;2024-02-15T01:22:36;11.50;99.90
25550;DHT22;13444;50.562;7.262;2024-02-15T01:25:01;11.50;99.90
25550;DHT22;13444;50.562;7.262;2024-02-15T01:27:27;11.50;99.90
25550;DHT22;13444;50.562;7.262;2024-02-15T01:29:56;11.40;99.90
25550;DHT22;13444;50.562;7.262;2024-02-15T01:32:22;11.40;99.90
25550;DHT22;13444;50.562;7.262;2024-02-15T01:34:48;11.40;99.90
25550;DHT22;13444;50.562;7.262;2024-02-15T01:37:13;11.40;99.90
25550;DHT22;13444;50.562;7.262;2024-02-15T01:39:39;11.40;99.90
25550;DHT22;13444;50.562;7.262;2024-02-15T01:42:05;11.40;99.90
25550;DHT22;13444;50.562;7.262;2024-02-15T01:44:31;11.40;99.90
25550;DHT22;13444;50.562;7.262;2024-02-15T01:46:57;11.40;99.90
25550;DHT22;13444;50.562;7.262;2024-02-15T01:49:25;11.40;99.90
25550;DHT22;13444;50.562;7.262;2024-02-15T01:51:55;11.50;99.90
25550;DHT22;13444;50.562;7.262;2024-02-15T01:54:22;11.50;99.90
25550;DHT22;13444;50.562;7.262;2024-02-15T01:56:48;11.50;99.90
25550;DHT22;13444;50.562;7.262;2024-02-15T01:59:18;11.50;99.90
25550;DHT22;13444;50.562;7.262;2024-02-15T02:01:44;11.50;99.90
25550;DHT22;13444;50.562;7.262;2024-02-15T02:04:10;11.50;99.90
25550;DHT22;13444;50.562;7.262;2024-02-15T02:06:37;11.40;99.90
25550;DHT22;13444;50.562;7.262;2024-02-15T02:09:03;11.50;99.90
25550;DHT22;13444;50.562;7.262;2024-02-15T02:11:29;11.40;99.90
25550;DHT22;13444;50.562;7.262;2024-02-15T02:13:55;11.50;99.90
25550;DHT22;13444;50.562;7.262;2024-02-15T02:16:25;11.50;99.90
25550;DHT22;13444;50.562;7.262;2024-02-15T02:18:53;11.50;99.90
25550;DHT22;13444;50.562;7.262;2024-02-15T02:21:19;11.50;99.90
25550;DHT22;13444;50.562;7.262;2024-02-15T02:23:48;11.40;99.90
25550;DHT22;13444;50.562;7.262;2024-02-15T02:26:17;11.40;99.90
25550;DHT22;13444;50.562;7.262;2024-02-15T02:28:42;11.40;99.90
25550;DHT22;13444;50.562;7.262;2024-02-15T02:31:08;11.40;99.90
25550;DHT22;13444;50.562;7.262;2024-02-15T02:33:37;11.40;99.90
25550;DHT22;13444;50.562;7.262;2024-02-15T02:36:02;11.40;99.90
25550;DHT22;13444;50.562;7.262;2024-02-15T02:38:28;11.40;99.90
25550;DHT22;13444;50.562;7.262;2024-02-15T02:40:53;11.30;99.90
25550;DHT22;13444;50.562;7.262;2024-02-15T02:43:19;11.30;99.90
25550;DHT22;13444;50.562;7.262;2024-02-15T02:45:44;11.30;99.90
25550;DHT22;13444;50.562;7.262;2024-02-15T02:48:13;11.30;99.90
25550;DHT22;13444;50.562;7.262;2024-02-15T02:50:38;11.20;99.90
25550;DHT22;13444;50.562;7.262;2024-02-15T02:53:04;11.20;99.90
25550;DHT22;13444;50.562;7.262;2024-02-15T02:55:30;11.20;99.90
25550;DHT22;13444;50.562;7.262;2024-02-15T02:57:56;11.20;99.90
25550;DHT22;13444;50.562;7.262;2024-02-15T03:00:21;11.20;99.90
25550;DHT22;13444;50.562;7.262;2024-02-15T03:02:48;11.30;99.90
25550;DHT22;13444;50.562;7.262;2024-02-15T03:05:13;11.30;99.90
25550;DHT22;13444;50.562;7.262;2024-02-15T03:07:40;11.30;99.90
25550;DHT22;13444;50.562;7.262;2024-02-15T03:10:10;11.30;99.90
25550;DHT22;13444;50.562;7.262;2024-02-15T03:12:36;11.30;99.90
25550;DHT22;13444;50.562;7.262;2024-02-15T03:15:06;11.40;99.90
25550;DHT22;13444;50.562;7.262;2024-02-15T03:17:40;11.30;99.90
25550;DHT22;13444;50.562;7.262;2024-02-15T03:20:06;11.40;99.90
25550;DHT22;13444;50.562;7.262;2024-02-15T03:22:57;11.40;99.90
25550;DHT22;13444;50.562;7.262;2024-02-15T03:25:24;11.40;99.90
25550;DHT22;13444;50.562;7.262;2024-02-15T03:27:51;11.40;99.90
25550;DHT22;13444;50.562;7.262;2024-02-15T03:30:18;11.40;99.90
25550;DHT22;13444;50.562;7.262;2024-02-15T03:32:45;11.40;99.90
25550;DHT22;13444;50.562;7.262;2024-02-15T03:35:11;11.50;99.90
25550;DHT22;13444;50.562;7.262;2024-02-15T03:37:39;11.40;99.90
25550;DHT22;13444;50.562;7.262;2024-02-15T03:40:06;11.40;99.90
25550;DHT22;13444;50.562;7.262;2024-02-15T03:42:31;11.40;99.90
25550;DHT22;13444;50.562;7.262;2024-02-15T03:44:57;11.40;99.90
25550;DHT22;13444;50.562;7.262;2024-02-15T03:47:22;11.40;99.90
25550;DHT22;13444;50.562;7.262;2024-02-15T03:49:49;11.40;99.90
25550;DHT22;13444;50.562;7.262;2024-02-15T03:52:14;11.40;99.90
25550;DHT22;13444;50.562;7.262;2024-02-15T03:54:40;11.40;99.90
25550;DHT22;13444;50.562;7.262;2024-02-15T03:57:08;11.40;99.90
25550;DHT22;13444;50.562;7.262;2024-02-15T03:59:34;11.40;99.90
25550;DHT22;13444;50.562;7.262;2024-02-15T04:02:00;11.40;99.90
25550;DHT22;13444;50.562;7.262;2024-02-15T04:04:28;11.40;99.90
25550;DHT22;13444;50.562;7.262;2024-02-15T04:06:55;11.40;99.90
25550;DHT22;13444;50.562;7.262;2024-02-15T04:09:21;11.40;99.90
25550;DHT22;13444;50.562;7.262;2024-02-15T04:11:49;11.40;99.90
25550;DHT22;13444;50.562;7.262;2024-02-15T04:14:18;11.50;99.90
25550;DHT22;13444;50.562;7.262;2024-02-15T04:16:44;11.50;99.90
25550;DHT22;13444;50.562;7.262;2024-02-15T04:19:10;11.50;99.90
25550;DHT22;13444;50.562;7.262;2024-02-15T04:21:36;11.50;99.90
25550;DHT22;13444;50.562;7.262;2024-02-15T04:24:02;11.50;99.90
25550;DHT22;13444;50.562;7.262;2024-02-15T04:26:27;11.50;99.90
25550;DHT22;13444;50.562;7.262;2024-02-15T04:28:55;11.50;99.90
25550;DHT22;13444;50.562;7.262;2024-02-15T04:31:21;11.40;99.90
25550;DHT22;13444;50.562;7.262;2024-02-15T04:33:52;11.40;99.90
25550;DHT22;13444;50.562;7.262;2024-02-15T04:36:18;11.40;99.90
25550;DHT22;13444;50.562;7.262;2024-02-15T04:38:51;11.40;99.90
25550;DHT22;13444;50.562;7.262;2024-02-15T04:41:17;11.40;99.90
25550;DHT22;13444;50.562;7.262;2024-02-15T04:43:51;11.40;99.90
25550;DHT22;13444;50.562;7.262;2024-02-15T04:46:20;11.40;99.90
25550;DHT22;13444;50.562;7.262;2024-02-15T04:48:50;11.40;99.90
25550;DHT22;13444;50.562;7.262;2024-02-15T04:51:16;11.30;99.90
25550;DHT22;13444;50.562;7.262;2024-02-15T04:53:43;11.30;99.90
25550;DHT22;13444;50.562;7.262;2024-02-15T04:56:08;11.30;99.90
25550;DHT22;13444;50.562;7.262;2024-02-15T04:58:40;11.30;99.90
25550;DHT22;13444;50.562;7.262;2024-02-15T05:01:16;11.30;99.90
25550;DHT22;13444;50.562;7.262;2024-02-15T05:03:43;11.30;99.90
25550;DHT22;13444;50.562;7.262;2024-02-15T05:06:09;11.20;99.90
25550;DHT22;13444;50.562;7.262;2024-02-15T05:08:36;11.20;99.90
25550;DHT22;13444;50.562;7.262;2024-02-15T05:11:12;11.20;99.90
25550;DHT22;13444;50.562;7.262;2024-02-15T05:13:46;11.20;99.90
25550;DHT22;13444;50.562;7.262;2024-02-15T05:16:12;11.10;99.90
25550;DHT22;13444;50.562;7.262;2024-02-15T05:18:37;11.10;99.90
25550;DHT22;13444;50.562;7.262;2024-02-15T05:21:05;11.10;99.90
25550;DHT22;13444;50.562;7.262;2024-02-15T05:23:38;11.10;99.90
25550;DHT22;13444;50.562;7.262;2024-02-15T05:26:05;11.10;99.90
25550;DHT22;13444;50.562;7.262;2024-02-15T05:28:32;11.00;99.90
25550;DHT22;13444;50.562;7.262;2024-02-15T05:31:17;11.10;99.90
25550;DHT22;13444;50.562;7.262;2024-02-15T05:33:46;11.00;99.90
25550;DHT22;13444;50.562;7.262;2024-02-15T05:36:20;11.00;99.90
25550;DHT22;13444;50.562;7.262;2024-02-15T05:38:47;11.10;99.90
25550;DHT22;13444;50.562;7.262;2024-02-15T05:41:14;11.00;99.90
25550;DHT22;13444;50.562;7.262;2024-02-15T05:43:40;11.00;99.90
25550;DHT22;13444;50.562;7.262;2024-02-15T05:46:09;11.00;99.90
25550;DHT22;13444;50.562;7.262;2024-02-15T05:48:35;11.00;99.90
25550;DHT22;13444;50.562;7.262;2024-02-15T05:51:02;11.00;99.90
25550;DHT22;13444;50.562;7.262;2024-02-15T05:53:28;11.00;99.90
25550;DHT22;13444;50.562;7.262;2024-02-15T05:55:55;10.90;99.90
25550;DHT22;13444;50.562;7.262;2024-02-15T05:58:21;10.90;99.90
25550;DHT22;13444;50.562;7.262;2024-02-15T06:00:46;10.90;99.90
25550;DHT22;13444;50.562;7.262;2024-02-15T06:03:16;10.90;99.90
25550;DHT22;13444;50.562;7.262;2024-02-15T06:05:42;10.90;99.90
25550;DHT22;13444;50.562;7.262;2024-02-15T06:08:07;11.00;99.90
25550;DHT22;13444;50.562;7.262;2024-02-15T06:10:33;11.00;99.90
25550;DHT22;13444;50.562;7.262;2024-02-15T06:12:59;11.00;99.90
25550;DHT22;13444;50.562;7.262;2024-02-15T06:15:27;11.00;99.90
25550;DHT22;13444;50.562;7.262;2024-02-15T06:17:52;11.00;99.90
25550;DHT22;13444;50.562;7.262;2024-02-15T06:20:18;11.00;99.90
25550;DHT22;13444;50.562;7.262;2024-02-15T06:22:45;11.00;99.90
25550;DHT22;13444;50.562;7.262;2024-02-15T06:25:11;11.00;99.90
25550;DHT22;13444;50.562;7.262;2024-02-15T06:27:38;11.00;99.90
25550;DHT22;13444;50.562;7.262;2024-02-15T06:30:09;11.10;99.90
25550;DHT22;13444;50.562;7.262;2024-02-15T06:32:55;11.10;99.90
25550;DHT22;13444;50.562;7.262;2024-02-15T06:35:39;11.00;99.90
25550;DHT22;13444;50.562;7.262;2024-02-15T06:38:23;11.10;99.90
25550;DHT22;13444;50.562;7.262;2024-02-15T06:41:08;11.10;99.90
25550;DHT22;13444;50.562;7.262;2024-02-15T06:43:35;11.10;99.90
25550;DHT22;13444;50.562;7.262;2024-02-15T06:46:01;11.10;99.90
25550;DHT22;13444;50.562;7.262;2024-02-15T06:48:27;11.10;99.90
25550;DHT22;13444;50.562;7.262;2024-02-15T06:50:52;11.10;99.90
25550;DHT22;13444;50.562;7.262;2024-02-15T06:53:18;11.20;99.90
25550;DHT22;13444;50.562;7.262;2024-02-15T06:55:46;11.20;99.90
25550;DHT22;13444;50.562;7.262;2024-02-15T06:58:14;11.20;99.90
25550;DHT22;13444;50.562;7.262;2024-02-15T07:00:41;11.20;99.90
25550;DHT22;13444;50.562;7.262;2024-02-15T07:03:08;11.30;99.90
25550;DHT22;13444;50.562;7.262;2024-02-15T07:05:33;11.30;99.90
25550;DHT22;13444;50.562;7.262;2024-02-15T07:07:59;11.30;99.90
25550;DHT22;13444;50.562;7.262;2024-02-15T07:10:24;11.30;99.90
25550;DHT22;13444;50.562;7.262;2024-02-15T07:12:50;11.30;99.90
25550;DHT22;13444;50.562;7.262;2024-02-15T07:15:16;11.40;99.90
25550;DHT22;13444;50.562;7.262;2024-02-15T07:17:42;11.40;99.90
25550;DHT22;13444;50.562;7.262;2024-02-15T07:20:10;11.40;99.90
25550;DHT22;13444;50.562;7.262;2024-02-15T07:22:36;11.40;99.90
25550;DHT22;13444;50.562;7.262;2024-02-15T07:25:04;11.40;99.90
25550;DHT22;13444;50.562;7.262;2024-02-15T07:27:30;11.40;99.90
25550;DHT22;13444;50.562;7.262;2024-02-15T07:29:55;11.40;99.90
25550;DHT22;13444;50.562;7.262;2024-02-15T07:32:21;11.40;99.90
25550;DHT22;13444;50.562;7.262;2024-02-15T07:34:47;11.40;99.90
25550;DHT22;13444;50.562;7.262;2024-02-15T07:37:13;11.40;99.90
25550;DHT22;13444;50.562;7.262;2024-02-15T07:39:41;11.50;99.90
25550;DHT22;13444;50.562;7.262;2024-02-15T07:42:06;11.50;99.90
25550;DHT22;13444;50.562;7.262;2024-02-15T07:44:34;11.50;99.90
25550;DHT22;13444;50.562;7.262;2024-02-15T07:47:02;11.60;99.90
25550;DHT22;13444;50.562;7.262;2024-02-15T07:49:28;11.60;99.90
25550;DHT22;13444;50.562;7.262;2024-02-15T07:51:54;11.60;99.90
25550;DHT22;13444;50.562;7.262;2024-02-15T07:54:20;11.70;99.90
25550;DHT22;13444;50.562;7.262;2024-02-15T07:56:48;11.70;99.90
25550;DHT22;13444;50.562;7.262;2024-02-15T07:59:15;11.80;99.90
25550;DHT22;13444;50.562;7.262;2024-02-15T08:01:44;11.80;99.90
25550;DHT22;13444;50.562;7.262;2024-02-15T08:04:15;11.80;99.90
25550;DHT22;13444;50.562;7.262;2024-02-15T08:06:41;11.80;99.90
25550;DHT22;13444;50.562;7.262;2024-02-15T08:09:07;11.80;99.90
25550;DHT22;13444;50.562;7.262;2024-02-15T08:11:32;11.90;99.90
25550;DHT22;13444;50.562;7.262;2024-02-15T08:13:58;11.90;99.90
25550;DHT22;13444;50.562;7.262;2024-02-15T08:16:26;11.90;99.90
25550;DHT22;13444;50.562;7.262;2024-02-15T08:18:55;12.00;99.90
25550;DHT22;13444;50.562;7.262;2024-02-15T08:21:31;11.90;99.90
25550;DHT22;13444;50.562;7.262;2024-02-15T08:24:02;11.90;99.90
25550;DHT22;13444;50.562;7.262;2024-02-15T08:26:36;12.00;99.90
25550;DHT22;13444;50.562;7.262;2024-02-15T08:29:03;12.00;99.90
25550;DHT22;13444;50.562;7.262;2024-02-15T08:31:29;12.00;99.90
25550;DHT22;13444;50.562;7.262;2024-02-15T08:33:59;12.00;99.90
25550;DHT22;13444;50.562;7.262;2024-02-15T08:36:26;12.10;99.90
25550;DHT22;13444;50.562;7.262;2024-02-15T08:38:51;12.10;99.90
25550;DHT22;13444;50.562;7.262;2024-02-15T08:41:17;12.20;99.90
25550;DHT22;13444;50.562;7.262;2024-02-15T08:43:47;12.20;99.90
25550;DHT22;13444;50.562;7.262;2024-02-15T08:46:14;12.30;99.90
25550;DHT22;13444;50.562;7.262;2024-02-15T08:48:40;12.30;99.90
25550;DHT22;13444;50.562;7.262;2024-02-15T08:51:06;12.30;99.90
25550;DHT22;13444;50.562;7.262;2024-02-15T08:53:34;12.40;99.90
25550;DHT22;13444;50.562;7.262;2024-02-15T08:56:02;12.40;99.90
25550;DHT22;13444;50.562;7.262;2024-02-15T08:58:27;12.40;99.90
25550;DHT22;13444;50.562;7.262;2024-02-15T09:00:55;12.50;99.90
25550;DHT22;13444;50.562;7.262;2024-02-15T09:03:21;12.50;99.90
25550;DHT22;13444;50.562;7.262;2024-02-15T09:05:47;12.50;99.90
25550;DHT22;13444;50.562;7.262;2024-02-15T09:08:13;12.50;99.90
25550;DHT22;13444;50.562;7.262;2024-02-15T09:10:39;12.50;99.90
25550;DHT22;13444;50.562;7.262;2024-02-15T09:13:05;12.50;99.90
25550;DHT22;13444;50.562;7.262;2024-02-15T09:15:32;12.60;99.90
25550;DHT22;13444;50.562;7.262;2024-02-15T09:17:57;12.60;99.90
25550;DHT22;13444;50.562;7.262;2024-02-15T09:20:23;12.60;99.90
25550;DHT22;13444;50.562;7.262;2024-02-15T09:22:54;12.60;99.90
25550;DHT22;13444;50.562;7.262;2024-02-15T09:25:20;12.60;99.90
25550;DHT22;13444;50.562;7.262;2024-02-15T09:27:48;12.60;99.90
25550;DHT22;13444;50.562;7.262;2024-02-15T09:30:15;12.60;99.90
25550;DHT22;13444;50.562;7.262;2024-02-15T09:32:41;12.60;99.90
25550;DHT22;13444;50.562;7.262;2024-02-15T09:35:07;12.60;99.90
25550;DHT22;13444;50.562;7.262;2024-02-15T09:37:38;12.60;99.90
25550;DHT22;13444;50.562;7.262;2024-02-15T09:40:08;12.70;99.90
25550;DHT22;13444;50.562;7.262;2024-02-15T09:42:35;12.70;99.90
25550;DHT22;13444;50.562;7.262;2024-02-15T09:45:02;12.70;99.90
25550;DHT22;13444;50.562;7.262;2024-02-15T09:47:38;12.80;99.90
25550;DHT22;13444;50.562;7.262;2024-02-15T09:50:09;12.80;99.90
25550;DHT22;13444;50.562;7.262;2024-02-15T09:52:38;12.90;99.90
25550;DHT22;13444;50.562;7.262;2024-02-15T09:55:05;13.00;99.90
25550;DHT22;13444;50.562;7.262;2024-02-15T09:57:31;13.10;99.90
25550;DHT22;13444;50.562;7.262;2024-02-15T10:00:00;13.20;99.90
25550;DHT22;13444;50.562;7.262;2024-02-15T10:02:28;13.30;99.90
25550;DHT22;13444;50.562;7.262;2024-02-15T10:04:56;13.40;99.90
25550;DHT22;13444;50.562;7.262;2024-02-15T10:07:25;13.40;99.90
25550;DHT22;13444;50.562;7.262;2024-02-15T10:09:52;13.50;99.90
25550;DHT22;13444;50.562;7.262;2024-02-15T10:12:18;13.60;99.90
25550;DHT22;13444;50.562;7.262;2024-02-15T10:14:50;13.70;99.90
25550;DHT22;13444;50.562;7.262;2024-02-15T10:17:17;14.00;99.90
25550;DHT22;13444;50.562;7.262;2024-02-15T10:19:43;14.30;99.90
25550;DHT22;13444;50.562;7.262;2024-02-15T10:22:10;14.70;99.90
25550;DHT22;13444;50.562;7.262;2024-02-15T10:24:36;15.00;99.90
25550;DHT22;13444;50.562;7.262;2024-02-15T10:27:05;15.40;99.90
25550;DHT22;13444;50.562;7.262;2024-02-15T10:29:36;15.80;99.90
25550;DHT22;13444;50.562;7.262;2024-02-15T10:32:03;16.10;99.90
25550;DHT22;13444;50.562;7.262;2024-02-15T10:34:30;16.30;99.90
25550;DHT22;13444;50.562;7.262;2024-02-15T10:37:15;16.20;99.90
25550;DHT22;13444;50.562;7.262;2024-02-15T10:39:44;16.30;99.90
25550;DHT22;13444;50.562;7.262;2024-02-15T10:42:10;16.10;99.90
25550;DHT22;13444;50.562;7.262;2024-02-15T10:44:36;16.20;99.90
25550;DHT22;13444;50.562;7.262;2024-02-15T10:47:04;16.10;99.90
25550;DHT22;13444;50.562;7.262;2024-02-15T10:49:33;16.00;99.90
25550;DHT22;13444;50.562;7.262;2024-02-15T10:52:01;15.80;99.90
25550;DHT22;13444;50.562;7.262;2024-02-15T10:54:40;15.50;99.90
25550;DHT22;13444;50.562;7.262;2024-02-15T10:57:06;15.50;99.90
25550;DHT22;13444;50.562;7.262;2024-02-15T10:59:35;15.40;99.90
25550;DHT22;13444;50.562;7.262;2024-02-15T11:02:23;15.30;99.90
25550;DHT22;13444;50.562;7.262;2024-02-15T11:04:53;15.30;99.90
25550;DHT22;13444;50.562;7.262;2024-02-15T11:07:24;15.30;99.90
25550;DHT22;13444;50.562;7.262;2024-02-15T11:09:50;15.30;99.90
25550;DHT22;13444;50.562;7.262;2024-02-15T11:12:17;15.30;99.90
25550;DHT22;13444;50.562;7.262;2024-02-15T11:14:44;15.20;99.90
25550;DHT22;13444;50.562;7.262;2024-02-15T11:17:10;15.10;99.90
25550;DHT22;13444;50.562;7.262;2024-02-15T11:22:16;15.10;99.90
25550;DHT22;13444;50.562;7.262;2024-02-15T11:24:49;15.20;99.90
25550;DHT22;13444;50.562;7.262;2024-02-15T11:27:29;15.20;99.90
25550;DHT22;13444;50.562;7.262;2024-02-15T11:29:58;15.20;99.90
25550;DHT22;13444;50.562;7.262;2024-02-15T11:32:48;15.20;99.90
25550;DHT22;13444;50.562;7.262;2024-02-15T11:35:25;15.30;99.90
25550;DHT22;13444;50.562;7.262;2024-02-15T11:42:49;15.40;99.90
25550;DHT22;13444;50.562;7.262;2024-02-15T11:45:16;15.40;99.90
25550;DHT22;13444;50.562;7.262;2024-02-15T11:47:47;15.40;99.90
25550;DHT22;13444;50.562;7.262;2024-02-15T11:50:16;15.40;99.90
25550;DHT22;13444;50.562;7.262;2024-02-15T11:52:46;15.40;99.90
25550;DHT22;13444;50.562;7.262;2024-02-15T11:55:17;15.50;99.90
25550;DHT22;13444;50.562;7.262;2024-02-15T11:58:01;15.50;99.90
25550;DHT22;13444;50.562;7.262;2024-02-15T12:00:32;15.60;99.90
25550;DHT22;13444;50.562;7.262;2024-02-15T12:03:17;15.80;99.90
25550;DHT22;13444;50.562;7.262;2024-02-15T12:06:02;15.90;99.90
25550;DHT22;13444;50.562;7.262;2024-02-15T12:08:47;15.90;99.90
25550;DHT22;13444;50.562;7.262;2024-02-15T12:11:32;15.90;99.90
25550;DHT22;13444;50.562;7.262;2024-02-15T12:14:17;16.00;99.90
25550;DHT22;13444;50.562;7.262;2024-02-15T12:17:05;16.00;99.90
25550;DHT22;13444;50.562;7.262;2024-02-15T12:19:51;16.20;99.90
25550;DHT22;13444;50.562;7.262;2024-02-15T12:22:28;16.20;99.80
25550;DHT22;13444;50.562;7.262;2024-02-15T12:24:57;16.30;98.50
25550;DHT22;13444;50.562;7.262;2024-02-15T12:27:24;16.50;99.10
25550;DHT22;13444;50.562;7.262;2024-02-15T12:29:56;16.70;94.90
25550;DHT22;13444;50.562;7.262;2024-02-15T12:32:26;16.80;94.70
25550;DHT22;13444;50.562;7.262;2024-02-15T12:34:53;16.80;91.30
25550;DHT22;13444;50.562;7.262;2024-02-15T12:37:20;16.80;91.90
25550;DHT22;13444;50.562;7.262;2024-02-15T12:39:49;16.80;92.90
25550;DHT22;13444;50.562;7.262;2024-02-15T12:42:16;16.80;93.90
25550;DHT22;13444;50.562;7.262;2024-02-15T12:44:46;16.80;93.30
25550;DHT22;13444;50.562;7.262;2024-02-15T12:47:22;16.80;90.60
25550;DHT22;13444;50.562;7.262;2024-02-15T12:49:50;16.90;90.50
25550;DHT22;13444;50.562;7.262;2024-02-15T12:52:33;16.90;86.50
25550;DHT22;13444;50.562;7.262;2024-02-15T12:55:19;17.00;83.80
25550;DHT22;13444;50.562;7.262;2024-02-15T12:57:48;17.00;87.40
25550;DHT22;13444;50.562;7.262;2024-02-15T13:00:20;16.90;87.80
25550;DHT22;13444;50.562;7.262;2024-02-15T13:02:48;16.90;81.10
25550;DHT22;13444;50.562;7.262;2024-02-15T13:05:17;16.90;85.20
25550;DHT22;13444;50.562;7.262;2024-02-15T13:07:50;17.00;84.30
25550;DHT22;13444;50.562;7.262;2024-02-15T13:10:16;17.00;85.40
25550;DHT22;13444;50.562;7.262;2024-02-15T13:12:42;17.10;81.20
25550;DHT22;13444;50.562;7.262;2024-02-15T13:15:12;17.10;79.30
25550;DHT22;13444;50.562;7.262;2024-02-15T13:17:46;17.10;75.30
25550;DHT22;13444;50.562;7.262;2024-02-15T13:20:14;17.10;79.30
25550;DHT22;13444;50.562;7.262;2024-02-15T13:22:43;17.00;74.60
25550;DHT22;13444;50.562;7.262;2024-02-15T13:25:09;16.90;74.40
25550;DHT22;13444;50.562;7.262;2024-02-15T13:27:36;16.80;79.60
25550;DHT22;13444;50.562;7.262;2024-02-15T13:30:04;16.80;81.60
25550;DHT22;13444;50.562;7.262;2024-02-15T13:32:34;16.70;81.80
25550;DHT22;13444;50.562;7.262;2024-02-15T13:35:06;16.70;82.60
25550;DHT22;13444;50.562;7.262;2024-02-15T13:37:46;16.60;81.50
25550;DHT22;13444;50.562;7.262;2024-02-15T13:40:13;16.50;86.50
25550;DHT22;13444;50.562;7.262;2024-02-15T13:42:43;16.50;88.20
25550;DHT22;13444;50.562;7.262;2024-02-15T13:46:00;16.50;86.70
25550;DHT22;13444;50.562;7.262;2024-02-15T13:48:03;16.50;88.30
25550;DHT22;13444;50.562;7.262;2024-02-15T13:50:30;16.50;86.30
25550;DHT22;13444;50.562;7.262;2024-02-15T13:52:56;16.50;87.70
25550;DHT22;13444;50.562;7.262;2024-02-15T13:55:24;16.40;89.20
25550;DHT22;13444;50.562;7.262;2024-02-15T13:57:53;16.40;87.50
25550;DHT22;13444;50.562;7.262;2024-02-15T14:00:21;16.40;89.70
25550;DHT22;13444;50.562;7.262;2024-02-15T14:02:51;16.40;87.00
25550;DHT22;13444;50.562;7.262;2024-02-15T14:05:17;16.40;89.80
25550;DHT22;13444;50.562;7.262;2024-02-15T14:07:55;16.40;83.80
25550;DHT22;13444;50.562;7.262;2024-02-15T14:10:22;16.40;86.80
25550;DHT22;13444;50.562;7.262;2024-02-15T14:12:48;16.40;86.00
25550;DHT22;13444;50.562;7.262;2024-02-15T14:15:15;16.40;85.60
25550;DHT22;13444;50.562;7.262;2024-02-15T14:17:42;16.40;83.80
25550;DHT22;13444;50.562;7.262;2024-02-15T14:20:09;16.30;86.60
25550;DHT22;13444;50.562;7.262;2024-02-15T14:22:48;16.30;81.50
25550;DHT22;13444;50.562;7.262;2024-02-15T14:25:15;16.40;81.20
25550;DHT22;13444;50.562;7.262;2024-02-15T14:27:40;16.40;81.60
25550;DHT22;13444;50.562;7.262;2024-02-15T14:30:07;16.30;80.50
25550;DHT22;13444;50.562;7.262;2024-02-15T14:32:51;16.30;83.80
25550;DHT22;13444;50.562;7.262;2024-02-15T14:35:36;16.40;83.00
25550;DHT22;13444;50.562;7.262;2024-02-15T14:38:10;16.30;85.70
25550;DHT22;13444;50.562;7.262;2024-02-15T14:40:38;16.30;82.40
25550;DHT22;13444;50.562;7.262;2024-02-15T14:43:04;16.30;81.20
25550;DHT22;13444;50.562;7.262;2024-02-15T14:45:34;16.30;85.30
25550;DHT22;13444;50.562;7.262;2024-02-15T14:48:00;16.20;83.90
25550;DHT22;13444;50.562;7.262;2024-02-15T14:50:26;16.20;79.10
25550;DHT22;13444;50.562;7.262;2024-02-15T14:52:52;16.20;80.40
25550;DHT22;13444;50.562;7.262;2024-02-15T14:55:19;16.10;80.90
25550;DHT22;13444;50.562;7.262;2024-02-15T14:57:46;16.10;76.60
25550;DHT22;13444;50.562;7.262;2024-02-15T15:00:12;16.10;80.70
25550;DHT22;13444;50.562;7.262;2024-02-15T15:02:40;16.10;82.20
25550;DHT22;13444;50.562;7.262;2024-02-15T15:05:09;16.00;84.70
25550;DHT22;13444;50.562;7.262;2024-02-15T15:07:53;15.90;87.40
25550;DHT22;13444;50.562;7.262;2024-02-15T15:10:37;15.90;88.60
25550;DHT22;13444;50.562;7.262;2024-02-15T15:13:21;15.80;87.70
25550;DHT22;13444;50.562;7.262;2024-02-15T15:15:48;15.80;90.30
25550;DHT22;13444;50.562;7.262;2024-02-15T15:18:14;15.80;88.90
25550;DHT22;13444;50.562;7.262;2024-02-15T15:20:39;15.70;90.60
25550;DHT22;13444;50.562;7.262;2024-02-15T15:23:05;15.70;87.70
25550;DHT22;13444;50.562;7.262;2024-02-15T15:25:34;15.70;82.50
25550;DHT22;13444;50.562;7.262;2024-02-15T15:28:00;15.70;84.20
25550;DHT22;13444;50.562;7.262;2024-02-15T15:30:26;15.70;86.20
25550;DHT22;13444;50.562;7.262;2024-02-15T15:32:51;15.70;89.10
25550;DHT22;13444;50.562;7.262;2024-02-15T15:35:18;15.60;89.50
25550;DHT22;13444;50.562;7.262;2024-02-15T15:37:46;15.60;90.40
25550;DHT22;13444;50.562;7.262;2024-02-15T15:40:12;15.60;91.50
25550;DHT22;13444;50.562;7.262;2024-02-15T15:42:39;15.60;91.70
25550;DHT22;13444;50.562;7.262;2024-02-15T15:45:05;15.60;91.80
25550;DHT22;13444;50.562;7.262;2024-02-15T15:47:31;15.50;90.50
25550;DHT22;13444;50.562;7.262;2024-02-15T15:49:57;15.60;92.00